sensor_id;sensor_type;location;lat;lon;timestamp;temperature;humidity
21830;DHT22;11077;50.264;6.798;2022-09-09T00:02:19;14.00;99.90
21830;DHT22;11077;50.264;6.798;2022-09-09T00:04:54;14.00;99.90
21830;DHT22;11077;50.264;6.798;2022-09-09T00:07:32;14.00;99.90
21830;DHT22;11077;50.264;6.798;2022-09-09T00:10:13;14.00;99.90
21830;DHT22;11077;50.264;6.798;2022-09-09T00:12:50;14.00;99.90
21830;DHT22;11077;50.264;6.798;2022-09-09T00:15:22;13.90;99.90
21830;DHT22;11077;50.264;6.798;2022-09-09T00:17:55;13.90;99.90
21830;DHT22;11077;50.264;6.798;2022-09-09T00:20:29;13.90;99.90
21830;DHT22;11077;50.264;6.798;2022-09-09T00:23:03;13.90;99.90
21830;DHT22;11077;50.264;6.798;2022-09-09T00:25:37;14.00;99.90
21830;DHT22;11077;50.264;6.798;2022-09-09T00:28:16;14.00;99.90
21830;DHT22;11077;50.264;6.798;2022-09-09T00:30:50;14.00;99.90
21830;DHT22;11077;50.264;6.798;2022-09-09T00:33:23;14.00;99.90
21830;DHT22;11077;50.264;6.798;2022-09-09T00:35:53;14.00;99.90
21830;DHT22;11077;50.264;6.798;2022-09-09T00:38:24;14.00;99.90
21830;DHT22;11077;50.264;6.798;2022-09-09T00:40:58;14.00;99.90
21830;DHT22;11077;50.264;6.798;2022-09-09T00:43:30;13.90;99.90
21830;DHT22;11077;50.264;6.798;2022-09-09T00:46:19;13.90;99.90
21830;DHT22;11077;50.264;6.798;2022-09-09T00:49:00;13.90;99.90
21830;DHT22;11077;50.264;6.798;2022-09-09T00:51:39;14.00;99.90
21830;DHT22;11077;50.264;6.798;2022-09-09T00:54:28;13.90;99.90
21830;DHT22;11077;50.264;6.798;2022-09-09T00:57:07;14.00;99.90
21830;DHT22;11077;50.264;6.798;2022-09-09T00:59:45;14.00;99.90
21830;DHT22;11077;50.264;6.798;2022-09-09T01:02:19;14.00;99.90
21830;DHT22;11077;50.264;6.798;2022-09-09T01:04:50;14.00;99.90
21830;DHT22;11077;50.264;6.798;2022-09-09T01:07:21;14.00;99.90
21830;DHT22;11077;50.264;6.798;2022-09-09T01:09:54;14.00;99.90
21830;DHT22;11077;50.264;6.798;2022-09-09T01:12:33;14.10;99.90
21830;DHT22;11077;50.264;6.798;2022-09-09T01:15:08;14.10;99.90
21830;DHT22;11077;50.264;6.798;2022-09-09T01:17:51;14.10;99.90
21830;DHT22;11077;50.264;6.798;2022-09-09T01:20:24;14.10;99.90
21830;DHT22;11077;50.264;6.798;2022-09-09T01:23:07;14.00;99.90
21830;DHT22;11077;50.264;6.798;2022-09-09T01:26:18;14.10;99.90
21830;DHT22;11077;50.264;6.798;2022-09-09T01:28:48;14.10;99.90
21830;DHT22;11077;50.264;6.798;2022-09-09T01:31:19;14.10;99.90
21830;DHT22;11077;50.264;6.798;2022-09-09T01:33:48;14.10;99.90
21830;DHT22;11077;50.264;6.798;2022-09-09T01:36:22;14.10;99.90
21830;DHT22;11077;50.264;6.798;2022-09-09T01:38:52;14.10;99.90
21830;DHT22;11077;50.264;6.798;2022-09-09T01:41:22;14.10;99.90
21830;DHT22;11077;50.264;6.798;2022-09-09T01:43:57;14.10;99.90
21830;DHT22;11077;50.264;6.798;2022-09-09T01:46:28;14.10;99.90
21830;DHT22;11077;50.264;6.798;2022-09-09T01:48:57;14.10;99.90
21830;DHT22;11077;50.264;6.798;2022-09-09T01:51:26;14.10;99.90
21830;DHT22;11077;50.264;6.798;2022-09-09T01:53:55;14.10;99.90
21830;DHT22;11077;50.264;6.798;2022-09-09T01:56:34;14.20;99.90
21830;DHT22;11077;50.264;6.798;2022-09-09T01:59:10;14.10;99.90
21830;DHT22;11077;50.264;6.798;2022-09-09T02:01:48;14.10;99.90
21830;DHT22;11077;50.264;6.798;2022-09-09T02:04:31;14.10;99.90
21830;DHT22;11077;50.264;6.798;2022-09-09T02:07:17;14.10;99.90
21830;DHT22;11077;50.264;6.798;2022-09-09T02:09:51;14.10;99.90
21830;DHT22;11077;50.264;6.798;2022-09-09T02:12:25;14.10;99.90
21830;DHT22;11077;50.264;6.798;2022-09-09T02:15:00;14.10;99.90
21830;DHT22;11077;50.264;6.798;2022-09-09T02:17:41;14.10;99.90
21830;DHT22;11077;50.264;6.798;2022-09-09T02:20:14;14.10;99.90
21830;DHT22;11077;50.264;6.798;2022-09-09T02:22:49;14.10;99.90
21830;DHT22;11077;50.264;6.798;2022-09-09T02:25:21;14.10;99.90
21830;DHT22;11077;50.264;6.798;2022-09-09T02:27:52;14.00;99.90
21830;DHT22;11077;50.264;6.798;2022-09-09T02:30:20;14.00;99.90
21830;DHT22;11077;50.264;6.798;2022-09-09T02:32:54;14.00;99.90
21830;DHT22;11077;50.264;6.798;2022-09-09T02:35:32;13.90;99.90
21830;DHT22;11077;50.264;6.798;2022-09-09T02:38:06;13.90;99.90
21830;DHT22;11077;50.264;6.798;2022-09-09T02:40:35;13.90;99.90
21830;DHT22;11077;50.264;6.798;2022-09-09T02:43:05;13.80;99.90
21830;DHT22;11077;50.264;6.798;2022-09-09T02:45:38;13.80;99.90
21830;DHT22;11077;50.264;6.798;2022-09-09T02:48:20;13.80;99.90
21830;DHT22;11077;50.264;6.798;2022-09-09T02:50:57;13.80;99.90
21830;DHT22;11077;50.264;6.798;2022-09-09T02:53:37;13.80;99.90
21830;DHT22;11077;50.264;6.798;2022-09-09T02:56:11;13.80;99.90
21830;DHT22;11077;50.264;6.798;2022-09-09T02:58:46;13.70;99.90
21830;DHT22;11077;50.264;6.798;2022-09-09T03:01:15;13.70;99.90
21830;DHT22;11077;50.264;6.798;2022-09-09T03:03:43;13.70;99.90
21830;DHT22;11077;50.264;6.798;2022-09-09T03:06:15;13.60;99.90
21830;DHT22;11077;50.264;6.798;2022-09-09T03:08:47;13.60;99.90
21830;DHT22;11077;50.264;6.798;2022-09-09T03:11:16;13.70;99.90
21830;DHT22;11077;50.264;6.798;2022-09-09T03:13:44;13.60;99.90
21830;DHT22;11077;50.264;6.798;2022-09-09T03:16:13;13.60;99.90
21830;DHT22;11077;50.264;6.798;2022-09-09T03:18:44;13.60;99.90
21830;DHT22;11077;50.264;6.798;2022-09-09T03:21:12;13.60;99.90
21830;DHT22;11077;50.264;6.798;2022-09-09T03:23:41;13.60;99.90
21830;DHT22;11077;50.264;6.798;2022-09-09T03:26:09;13.60;99.90
21830;DHT22;11077;50.264;6.798;2022-09-09T03:28:45;13.60;99.90
21830;DHT22;11077;50.264;6.798;2022-09-09T03:31:16;13.50;99.90
21830;DHT22;11077;50.264;6.798;2022-09-09T03:33:45;13.50;99.90
21830;DHT22;11077;50.264;6.798;2022-09-09T03:36:15;13.60;99.90
21830;DHT22;11077;50.264;6.798;2022-09-09T03:38:43;13.50;99.90
21830;DHT22;11077;50.264;6.798;2022-09-09T03:41:12;13.60;99.90
21830;DHT22;11077;50.264;6.798;2022-09-09T03:43:39;13.50;99.90
21830;DHT22;11077;50.264;6.798;2022-09-09T03:46:09;13.60;99.90
21830;DHT22;11077;50.264;6.798;2022-09-09T03:48:36;13.60;99.90
21830;DHT22;11077;50.264;6.798;2022-09-09T03:51:04;13.60;99.90
21830;DHT22;11077;50.264;6.798;2022-09-09T03:53:33;13.60;99.90
21830;DHT22;11077;50.264;6.798;2022-09-09T03:56:03;13.60;99.90
21830;DHT22;11077;50.264;6.798;2022-09-09T03:58:33;13.50;99.90
21830;DHT22;11077;50.264;6.798;2022-09-09T04:01:06;13.60;99.90
21830;DHT22;11077;50.264;6.798;2022-09-09T04:03:38;13.60;99.90
21830;DHT22;11077;50.264;6.798;2022-09-09T04:06:06;13.60;99.90
21830;DHT22;11077;50.264;6.798;2022-09-09T04:08:36;13.50;99.90
21830;DHT22;11077;50.264;6.798;2022-09-09T04:11:08;13.60;99.90
21830;DHT22;11077;50.264;6.798;2022-09-09T04:13:38;13.60;99.90
21830;DHT22;11077;50.264;6.798;2022-09-09T04:16:10;13.50;99.90
21830;DHT22;11077;50.264;6.798;2022-09-09T04:18:41;13.50;99.90
21830;DHT22;11077;50.264;6.798;2022-09-09T04:21:10;13.60;99.90
21830;DHT22;11077;50.264;6.798;2022-09-09T04:23:38;13.60;99.90
21830;DHT22;11077;50.264;6.798;2022-09-09T04:26:06;13.50;99.90
21830;DHT22;11077;50.264;6.798;2022-09-09T04:28:36;13.60;99.90
21830;DHT22;11077;50.264;6.798;2022-09-09T04:31:12;13.60;99.90
21830;DHT22;11077;50.264;6.798;2022-09-09T04:33:48;13.60;99.90
21830;DHT22;11077;50.264;6.798;2022-09-09T04:36:16;13.60;99.90
21830;DHT22;11077;50.264;6.798;2022-09-09T04:38:46;13.50;99.90
21830;DHT22;11077;50.264;6.798;2022-09-09T04:41:15;13.60;99.90
21830;DHT22;11077;50.264;6.798;2022-09-09T04:43:46;13.60;99.90
21830;DHT22;11077;50.264;6.798;2022-09-09T04:46:16;13.60;99.90
21830;DHT22;11077;50.264;6.798;2022-09-09T04:48:45;13.60;99.90
21830;DHT22;11077;50.264;6.798;2022-09-09T04:51:13;13.60;99.90
21830;DHT22;11077;50.264;6.798;2022-09-09T04:53:49;13.60;99.90
21830;DHT22;11077;50.264;6.798;2022-09-09T04:56:19;13.60;99.90
21830;DHT22;11077;50.264;6.798;2022-09-09T04:58:52;13.60;99.90
21830;DHT22;11077;50.264;6.798;2022-09-09T05:01:23;13.60;99.90
21830;DHT22;11077;50.264;6.798;2022-09-09T05:04:02;13.60;99.90
21830;DHT22;11077;50.264;6.798;2022-09-09T05:06:32;13.60;99.90
21830;DHT22;11077;50.264;6.798;2022-09-09T05:09:07;13.60;99.90
21830;DHT22;11077;50.264;6.798;2022-09-09T05:11:36;13.60;99.90
21830;DHT22;11077;50.264;6.798;2022-09-09T05:14:24;13.60;99.90
21830;DHT22;11077;50.264;6.798;2022-09-09T05:16:52;13.60;99.90
21830;DHT22;11077;50.264;6.798;2022-09-09T05:19:23;13.70;99.90
21830;DHT22;11077;50.264;6.798;2022-09-09T05:21:53;13.70;99.90
21830;DHT22;11077;50.264;6.798;2022-09-09T05:24:26;13.60;99.90
21830;DHT22;11077;50.264;6.798;2022-09-09T05:26:57;13.60;99.90
21830;DHT22;11077;50.264;6.798;2022-09-09T05:29:31;13.70;99.90
21830;DHT22;11077;50.264;6.798;2022-09-09T05:32:03;13.70;99.90
21830;DHT22;11077;50.264;6.798;2022-09-09T05:34:34;13.70;99.90
21830;DHT22;11077;50.264;6.798;2022-09-09T05:37:04;13.70;99.90
21830;DHT22;11077;50.264;6.798;2022-09-09T05:39:33;13.70;99.90
21830;DHT22;11077;50.264;6.798;2022-09-09T05:42:03;13.60;99.90
21830;DHT22;11077;50.264;6.798;2022-09-09T05:44:32;13.70;99.90
21830;DHT22;11077;50.264;6.798;2022-09-09T05:47:00;13.50;99.90
21830;DHT22;11077;50.264;6.798;2022-09-09T05:49:28;13.50;99.90
21830;DHT22;11077;50.264;6.798;2022-09-09T05:51:58;13.50;99.90
21830;DHT22;11077;50.264;6.798;2022-09-09T05:54:26;13.50;99.90
21830;DHT22;11077;50.264;6.798;2022-09-09T05:56:55;13.50;99.90
21830;DHT22;11077;50.264;6.798;2022-09-09T05:59:23;13.50;99.90
21830;DHT22;11077;50.264;6.798;2022-09-09T06:01:56;13.50;99.90
21830;DHT22;11077;50.264;6.798;2022-09-09T06:04:30;13.40;99.90
21830;DHT22;11077;50.264;6.798;2022-09-09T06:07:01;13.50;99.90
21830;DHT22;11077;50.264;6.798;2022-09-09T06:09:29;13.40;99.90
21830;DHT22;11077;50.264;6.798;2022-09-09T06:11:57;13.40;99.90
21830;DHT22;11077;50.264;6.798;2022-09-09T06:14:25;13.40;99.90
21830;DHT22;11077;50.264;6.798;2022-09-09T06:16:56;13.40;99.90
21830;DHT22;11077;50.264;6.798;2022-09-09T06:19:28;13.40;99.90
21830;DHT22;11077;50.264;6.798;2022-09-09T06:21:58;13.40;99.90
21830;DHT22;11077;50.264;6.798;2022-09-09T06:24:29;13.40;99.90
21830;DHT22;11077;50.264;6.798;2022-09-09T06:26:59;13.40;99.90
21830;DHT22;11077;50.264;6.798;2022-09-09T06:29:31;13.40;99.90
21830;DHT22;11077;50.264;6.798;2022-09-09T06:32:01;13.50;99.90
21830;DHT22;11077;50.264;6.798;2022-09-09T06:34:30;13.50;99.90
21830;DHT22;11077;50.264;6.798;2022-09-09T06:36:58;13.50;99.90
21830;DHT22;11077;50.264;6.798;2022-09-09T06:39:34;13.50;99.90
21830;DHT22;11077;50.264;6.798;2022-09-09T06:42:01;13.60;99.90
21830;DHT22;11077;50.264;6.798;2022-09-09T06:44:46;13.60;99.90
21830;DHT22;11077;50.264;6.798;2022-09-09T06:47:36;13.60;99.90
21830;DHT22;11077;50.264;6.798;2022-09-09T06:50:04;13.60;99.90
21830;DHT22;11077;50.264;6.798;2022-09-09T06:52:34;13.60;99.90
21830;DHT22;11077;50.264;6.798;2022-09-09T06:55:05;13.60;99.90
21830;DHT22;11077;50.264;6.798;2022-09-09T06:57:37;13.60;99.90
21830;DHT22;11077;50.264;6.798;2022-09-09T07:00:16;13.60;99.90
21830;DHT22;11077;50.264;6.798;2022-09-09T07:02:44;13.60;99.90
21830;DHT22;11077;50.264;6.798;2022-09-09T07:05:12;13.60;99.90
21830;DHT22;11077;50.264;6.798;2022-09-09T07:07:42;13.60;99.90
21830;DHT22;11077;50.264;6.798;2022-09-09T07:10:13;13.60;99.90
21830;DHT22;11077;50.264;6.798;2022-09-09T07:12:41;13.70;99.90
21830;DHT22;11077;50.264;6.798;2022-09-09T07:15:12;13.80;99.90
21830;DHT22;11077;50.264;6.798;2022-09-09T07:17:43;13.80;99.90
21830;DHT22;11077;50.264;6.798;2022-09-09T07:20:11;13.80;99.90
21830;DHT22;11077;50.264;6.798;2022-09-09T07:22:40;13.80;99.90
21830;DHT22;11077;50.264;6.798;2022-09-09T07:25:08;13.80;99.90
21830;DHT22;11077;50.264;6.798;2022-09-09T07:27:38;13.90;99.90
21830;DHT22;11077;50.264;6.798;2022-09-09T07:30:07;13.90;99.90
21830;DHT22;11077;50.264;6.798;2022-09-09T07:32:35;14.00;99.90
21830;DHT22;11077;50.264;6.798;2022-09-09T07:35:04;14.00;99.90
21830;DHT22;11077;50.264;6.798;2022-09-09T07:37:31;14.00;99.90
21830;DHT22;11077;50.264;6.798;2022-09-09T07:39:59;14.10;99.90
21830;DHT22;11077;50.264;6.798;2022-09-09T07:42:26;14.00;99.90
21830;DHT22;11077;50.264;6.798;2022-09-09T07:44:55;13.90;99.90
21830;DHT22;11077;50.264;6.798;2022-09-09T07:47:25;13.90;99.90
21830;DHT22;11077;50.264;6.798;2022-09-09T07:49:56;13.90;99.90
21830;DHT22;11077;50.264;6.798;2022-09-09T07:52:29;13.90;99.90
21830;DHT22;11077;50.264;6.798;2022-09-09T07:55:00;13.90;99.90
21830;DHT22;11077;50.264;6.798;2022-09-09T07:57:29;13.90;99.90
21830;DHT22;11077;50.264;6.798;2022-09-09T07:59:59;13.90;99.90
21830;DHT22;11077;50.264;6.798;2022-09-09T08:02:28;13.90;99.90
21830;DHT22;11077;50.264;6.798;2022-09-09T08:04:56;13.90;99.90
21830;DHT22;11077;50.264;6.798;2022-09-09T08:07:24;13.80;99.90
21830;DHT22;11077;50.264;6.798;2022-09-09T08:09:54;13.90;99.90
21830;DHT22;11077;50.264;6.798;2022-09-09T08:12:29;13.90;99.90
21830;DHT22;11077;50.264;6.798;2022-09-09T08:14:58;13.90;99.90
21830;DHT22;11077;50.264;6.798;2022-09-09T08:17:30;14.00;99.90
21830;DHT22;11077;50.264;6.798;2022-09-09T08:20:09;14.10;99.90
21830;DHT22;11077;50.264;6.798;2022-09-09T08:22:38;14.20;99.90
21830;DHT22;11077;50.264;6.798;2022-09-09T08:25:08;14.20;99.90
21830;DHT22;11077;50.264;6.798;2022-09-09T08:27:38;14.30;99.90
21830;DHT22;11077;50.264;6.798;2022-09-09T08:30:08;14.30;99.90
21830;DHT22;11077;50.264;6.798;2022-09-09T08:32:36;14.30;99.90
21830;DHT22;11077;50.264;6.798;2022-09-09T08:35:04;14.30;99.90
21830;DHT22;11077;50.264;6.798;2022-09-09T08:37:32;14.30;99.90
21830;DHT22;11077;50.264;6.798;2022-09-09T08:39:59;14.20;99.90
21830;DHT22;11077;50.264;6.798;2022-09-09T08:42:38;14.20;99.90
21830;DHT22;11077;50.264;6.798;2022-09-09T08:45:26;14.30;99.90
21830;DHT22;11077;50.264;6.798;2022-09-09T08:48:09;14.50;99.90
21830;DHT22;11077;50.264;6.798;2022-09-09T08:50:40;14.60;99.90
21830;DHT22;11077;50.264;6.798;2022-09-09T08:53:21;14.80;99.90
21830;DHT22;11077;50.264;6.798;2022-09-09T08:55:52;14.90;99.90
21830;DHT22;11077;50.264;6.798;2022-09-09T08:58:45;15.10;99.90
21830;DHT22;11077;50.264;6.798;2022-09-09T09:04:14;15.30;99.90
21830;DHT22;11077;50.264;6.798;2022-09-09T09:06:51;15.30;99.90
21830;DHT22;11077;50.264;6.798;2022-09-09T09:09:29;15.40;99.90
21830;DHT22;11077;50.264;6.798;2022-09-09T09:12:11;15.40;99.90
21830;DHT22;11077;50.264;6.798;2022-09-09T09:14:59;15.50;99.90
21830;DHT22;11077;50.264;6.798;2022-09-09T09:17:29;15.50;99.90
21830;DHT22;11077;50.264;6.798;2022-09-09T09:19:59;15.50;99.90
21830;DHT22;11077;50.264;6.798;2022-09-09T09:22:35;15.50;99.90
21830;DHT22;11077;50.264;6.798;2022-09-09T09:25:13;15.30;99.90
21830;DHT22;11077;50.264;6.798;2022-09-09T09:27:49;15.20;99.90
21830;DHT22;11077;50.264;6.798;2022-09-09T09:30:24;15.10;99.90
21830;DHT22;11077;50.264;6.798;2022-09-09T09:32:58;14.90;99.90
21830;DHT22;11077;50.264;6.798;2022-09-09T09:35:31;14.80;99.90
21830;DHT22;11077;50.264;6.798;2022-09-09T09:38:00;14.70;99.90
21830;DHT22;11077;50.264;6.798;2022-09-09T09:40:30;14.60;99.90
21830;DHT22;11077;50.264;6.798;2022-09-09T09:43:20;14.40;99.90
21830;DHT22;11077;50.264;6.798;2022-09-09T09:45:51;14.30;99.90
21830;DHT22;11077;50.264;6.798;2022-09-09T09:48:27;14.30;99.90
21830;DHT22;11077;50.264;6.798;2022-09-09T09:51:02;14.20;99.90
21830;DHT22;11077;50.264;6.798;2022-09-09T09:53:36;14.30;99.90
21830;DHT22;11077;50.264;6.798;2022-09-09T09:56:13;14.40;99.90
21830;DHT22;11077;50.264;6.798;2022-09-09T09:58:50;14.50;99.90
21830;DHT22;11077;50.264;6.798;2022-09-09T10:01:31;14.50;99.90
21830;DHT22;11077;50.264;6.798;2022-09-09T10:04:20;14.60;99.90
21830;DHT22;11077;50.264;6.798;2022-09-09T10:07:12;14.70;99.90
21830;DHT22;11077;50.264;6.798;2022-09-09T10:09:45;14.90;99.90
21830;DHT22;11077;50.264;6.798;2022-09-09T10:21:02;15.30;99.90
21830;DHT22;11077;50.264;6.798;2022-09-09T10:27:17;15.10;99.90
21830;DHT22;11077;50.264;6.798;2022-09-09T10:30:22;15.00;99.90
21830;DHT22;11077;50.264;6.798;2022-09-09T10:33:08;15.00;99.90
21830;DHT22;11077;50.264;6.798;2022-09-09T10:35:51;14.90;99.90
21830;DHT22;11077;50.264;6.798;2022-09-09T10:38:45;14.80;99.90
21830;DHT22;11077;50.264;6.798;2022-09-09T10:41:59;14.80;99.90
21830;DHT22;11077;50.264;6.798;2022-09-09T10:44:27;14.80;99.90
21830;DHT22;11077;50.264;6.798;2022-09-09T10:47:39;14.80;99.90
21830;DHT22;11077;50.264;6.798;2022-09-09T10:50:36;14.90;99.90
21830;DHT22;11077;50.264;6.798;2022-09-09T10:53:28;15.00;99.90
21830;DHT22;11077;50.264;6.798;2022-09-09T11:00:04;15.70;99.90
21830;DHT22;11077;50.264;6.798;2022-09-09T11:02:39;16.20;99.90
21830;DHT22;11077;50.264;6.798;2022-09-09T11:05:16;16.40;99.90
21830;DHT22;11077;50.264;6.798;2022-09-09T11:07:52;16.50;99.90
21830;DHT22;11077;50.264;6.798;2022-09-09T11:10:39;16.60;99.90
21830;DHT22;11077;50.264;6.798;2022-09-09T11:13:22;16.60;99.90
21830;DHT22;11077;50.264;6.798;2022-09-09T11:18:31;16.70;99.90
21830;DHT22;11077;50.264;6.798;2022-09-09T11:21:12;16.80;99.90
21830;DHT22;11077;50.264;6.798;2022-09-09T11:23:48;16.90;99.90
21830;DHT22;11077;50.264;6.798;2022-09-09T11:26:27;16.90;99.90
21830;DHT22;11077;50.264;6.798;2022-09-09T11:29:09;16.80;99.90
21830;DHT22;11077;50.264;6.798;2022-09-09T11:31:46;16.80;99.90
21830;DHT22;11077;50.264;6.798;2022-09-09T11:34:27;16.60;99.90
21830;DHT22;11077;50.264;6.798;2022-09-09T11:37:13;16.70;99.90
21830;DHT22;11077;50.264;6.798;2022-09-09T11:40:00;17.00;99.90
21830;DHT22;11077;50.264;6.798;2022-09-09T11:42:35;17.30;99.90
21830;DHT22;11077;50.264;6.798;2022-09-09T11:45:15;17.60;99.90
21830;DHT22;11077;50.264;6.798;2022-09-09T11:47:52;17.80;99.90
21830;DHT22;11077;50.264;6.798;2022-09-09T11:50:32;17.90;99.90
21830;DHT22;11077;50.264;6.798;2022-09-09T11:53:21;18.10;99.90
21830;DHT22;11077;50.264;6.798;2022-09-09T11:56:01;18.30;99.90
21830;DHT22;11077;50.264;6.798;2022-09-09T11:58:34;18.50;99.90
21830;DHT22;11077;50.264;6.798;2022-09-09T12:04:09;18.70;99.90
21830;DHT22;11077;50.264;6.798;2022-09-09T12:06:43;18.90;99.90
21830;DHT22;11077;50.264;6.798;2022-09-09T12:09:19;19.10;99.90
21830;DHT22;11077;50.264;6.798;2022-09-09T12:11:46;19.30;99.90
21830;DHT22;11077;50.264;6.798;2022-09-09T12:14:20;19.30;99.90
21830;DHT22;11077;50.264;6.798;2022-09-09T12:16:50;19.40;99.90
21830;DHT22;11077;50.264;6.798;2022-09-09T12:19:20;19.40;99.90
21830;DHT22;11077;50.264;6.798;2022-09-09T12:21:54;19.30;99.90
21830;DHT22;11077;50.264;6.798;2022-09-09T12:24:30;19.10;99.90
21830;DHT22;11077;50.264;6.798;2022-09-09T12:27:03;18.90;99.90
21830;DHT22;11077;50.264;6.798;2022-09-09T12:29:41;18.60;99.90
21830;DHT22;11077;50.264;6.798;2022-09-09T12:32:12;18.40;99.90
21830;DHT22;11077;50.264;6.798;2022-09-09T12:34:44;18.40;99.90
21830;DHT22;11077;50.264;6.798;2022-09-09T12:37:18;18.30;99.90
21830;DHT22;11077;50.264;6.798;2022-09-09T12:39:53;18.10;99.90
21830;DHT22;11077;50.264;6.798;2022-09-09T12:42:22;18.00;99.90
21830;DHT22;11077;50.264;6.798;2022-09-09T12:44:54;18.00;99.90
21830;DHT22;11077;50.264;6.798;2022-09-09T12:47:28;18.00;99.90
21830;DHT22;11077;50.264;6.798;2022-09-09T12:49:57;18.00;99.90
21830;DHT22;11077;50.264;6.798;2022-09-09T12:52:29;17.80;99.90
21830;DHT22;11077;50.264;6.798;2022-09-09T12:54:59;17.70;99.90
21830;DHT22;11077;50.264;6.798;2022-09-09T12:57:32;17.50;99.90
21830;DHT22;11077;50.264;6.798;2022-09-09T13:00:11;17.40;99.90
21830;DHT22;11077;50.264;6.798;2022-09-09T13:02:50;17.30;99.90
21830;DHT22;11077;50.264;6.798;2022-09-09T13:05:21;17.30;99.90
21830;DHT22;11077;50.264;6.798;2022-09-09T13:07:49;17.10;99.90
21830;DHT22;11077;50.264;6.798;2022-09-09T13:10:23;17.00;99.90
21830;DHT22;11077;50.264;6.798;2022-09-09T13:12:53;16.90;99.90
21830;DHT22;11077;50.264;6.798;2022-09-09T13:15:26;16.60;99.90
21830;DHT22;11077;50.264;6.798;2022-09-09T13:17:57;16.20;99.90
21830;DHT22;11077;50.264;6.798;2022-09-09T13:20:26;15.90;99.90
21830;DHT22;11077;50.264;6.798;2022-09-09T13:22:55;15.50;99.90
21830;DHT22;11077;50.264;6.798;2022-09-09T13:25:25;15.20;99.90
21830;DHT22;11077;50.264;6.798;2022-09-09T13:27:59;15.00;99.90
21830;DHT22;11077;50.264;6.798;2022-09-09T13:30:30;14.90;99.90
21830;DHT22;11077;50.264;6.798;2022-09-09T13:33:06;14.90;99.90
21830;DHT22;11077;50.264;6.798;2022-09-09T13:35:35;14.80;99.90
21830;DHT22;11077;50.264;6.798;2022-09-09T13:38:07;14.80;99.90
21830;DHT22;11077;50.264;6.798;2022-09-09T13:40:35;14.80;99.90
21830;DHT22;11077;50.264;6.798;2022-09-09T13:43:05;14.80;99.90
21830;DHT22;11077;50.264;6.798;2022-09-09T13:45:41;14.80;99.90
21830;DHT22;11077;50.264;6.798;2022-09-09T13:48:11;14.90;99.90
21830;DHT22;11077;50.264;6.798;2022-09-09T13:50:39;15.00;99.90
21830;DHT22;11077;50.264;6.798;2022-09-09T13:53:07;15.10;99.90
21830;DHT22;11077;50.264;6.798;2022-09-09T13:55:36;15.30;99.90
21830;DHT22;11077;50.264;6.798;2022-09-09T13:58:04;15.30;99.90
21830;DHT22;11077;50.264;6.798;2022-09-09T14:00:33;15.50;99.90
21830;DHT22;11077;50.264;6.798;2022-09-09T14:03:03;15.60;99.90
21830;DHT22;11077;50.264;6.798;2022-09-09T14:05:33;15.70;99.90
21830;DHT22;11077;50.264;6.798;2022-09-09T14:08:01;15.70;99.90
21830;DHT22;11077;50.264;6.798;2022-09-09T14:10:30;15.80;99.90
21830;DHT22;11077;50.264;6.798;2022-09-09T14:12:57;15.80;99.90
21830;DHT22;11077;50.264;6.798;2022-09-09T14:15:24;15.90;99.90
21830;DHT22;11077;50.264;6.798;2022-09-09T14:17:52;15.80;99.90
21830;DHT22;11077;50.264;6.798;2022-09-09T14:20:21;15.80;99.90
21830;DHT22;11077;50.264;6.798;2022-09-09T14:22:50;15.70;99.90
21830;DHT22;11077;50.264;6.798;2022-09-09T14:25:19;15.60;99.90
21830;DHT22;11077;50.264;6.798;2022-09-09T14:27:46;15.60;99.90
21830;DHT22;11077;50.264;6.798;2022-09-09T14:30:14;15.60;99.90
21830;DHT22;11077;50.264;6.798;2022-09-09T14:32:41;15.70;99.90
21830;DHT22;11077;50.264;6.798;2022-09-09T14:35:08;15.80;99.90
21830;DHT22;11077;50.264;6.798;2022-09-09T14:37:37;15.80;99.90
21830;DHT22;11077;50.264;6.798;2022-09-09T14:40:07;15.90;99.90
21830;DHT22;11077;50.264;6.798;2022-09-09T14:42:37;15.90;99.90
21830;DHT22;11077;50.264;6.798;2022-09-09T14:45:05;15.90;99.90
21830;DHT22;11077;50.264;6.798;2022-09-09T14:47:36;15.80;99.90
21830;DHT22;11077;50.264;6.798;2022-09-09T14:50:05;15.80;99.90
21830;DHT22;11077;50.264;6.798;2022-09-09T14:52:33;15.80;99.90
21830;DHT22;11077;50.264;6.798;2022-09-09T14:55:01;15.90;99.90
21830;DHT22;11077;50.264;6.798;2022-09-09T14:57:31;15.80;99.90
21830;DHT22;11077;50.264;6.798;2022-09-09T15:00:01;15.80;99.90
21830;DHT22;11077;50.264;6.798;2022-09-09T15:02:28;15.70;99.90
21830;DHT22;11077;50.264;6.798;2022-09-09T15:04:56;15.70;99.90
21830;DHT22;11077;50.264;6.798;2022-09-09T15:07:37;15.70;99.90
21830;DHT22;11077;50.264;6.798;2022-09-09T15:10:05;15.70;99.90
21830;DHT22;11077;50.264;6.798;2022-09-09T15:12:34;15.60;99.90
21830;DHT22;11077;50.264;6.798;2022-09-09T15:15:09;15.60;99.90
21830;DHT22;11077;50.264;6.798;2022-09-09T15:17:47;15.60;99.90
21830;DHT22;11077;50.264;6.798;2022-09-09T15:20:16;15.60;99.90
21830;DHT22;11077;50.264;6.798;2022-09-09T15:22:44;15.50;99.90
21830;DHT22;11077;50.264;6.798;2022-09-09T15:25:12;15.50;99.90
21830;DHT22;11077;50.264;6.798;2022-09-09T15:27:42;15.50;99.90
21830;DHT22;11077;50.264;6.798;2022-09-09T15:30:11;15.40;99.90
21830;DHT22;11077;50.264;6.798;2022-09-09T15:32:40;15.40;99.90
21830;DHT22;11077;50.264;6.798;2022-09-09T15:35:08;15.40;99.90
21830;DHT22;11077;50.264;6.798;2022-09-09T15:37:35;15.40;99.90
21830;DHT22;11077;50.264;6.798;2022-09-09T15:40:03;15.40;99.90
21830;DHT22;11077;50.264;6.798;2022-09-09T15:42:31;15.50;99.90
21830;DHT22;11077;50.264;6.798;2022-09-09T15:45:00;15.60;99.90
21830;DHT22;11077;50.264;6.798;2022-09-09T15:47:27;15.60;99.90
21830;DHT22;11077;50.264;6.798;2022-09-09T15:49:55;15.60;99.90
21830;DHT22;11077;50.264;6.798;2022-09-09T15:52:22;15.60;99.90
21830;DHT22;11077;50.264;6.798;2022-09-09T15:54:50;15.60;99.90
21830;DHT22;11077;50.264;6.798;2022-09-09T15:57:18;15.60;99.90
21830;DHT22;11077;50.264;6.798;2022-09-09T15:59:46;15.60;99.90
21830;DHT22;11077;50.264;6.798;2022-09-09T16:02:15;15.70;99.90
21830;DHT22;11077;50.264;6.798;2022-09-09T16:04:43;15.60;99.90
21830;DHT22;11077;50.264;6.798;2022-09-09T16:07:11;15.60;99.90
21830;DHT22;11077;50.264;6.798;2022-09-09T16:09:39;15.50;99.90
21830;DHT22;11077;50.264;6.798;2022-09-09T16:12:06;15.50;99.90
21830;DHT22;11077;50.264;6.798;2022-09-09T16:14:35;15.50;99.90
21830;DHT22;11077;50.264;6.798;2022-09-09T16:17:03;15.40;99.90
21830;DHT22;11077;50.264;6.798;2022-09-09T16:19:33;15.40;99.90
21830;DHT22;11077;50.264;6.798;2022-09-09T16:22:02;15.30;99.90
21830;DHT22;11077;50.264;6.798;2022-09-09T16:24:29;15.20;99.90
21830;DHT22;11077;50.264;6.798;2022-09-09T16:26:57;15.10;99.90
21830;DHT22;11077;50.264;6.798;2022-09-09T16:29:24;15.00;99.90
21830;DHT22;11077;50.264;6.798;2022-09-09T16:31:54;14.90;99.90